createdAt,value
2018-11-29T00:00:32.050Z,15.88
2018-11-29T00:03:00.192Z,15.38
2018-11-29T00:05:28.346Z,12.78
2018-11-29T00:07:56.479Z,14.83
2018-11-29T00:10:24.610Z,13.95
2018-11-29T00:12:52.842Z,13.95
2018-11-29T00:15:20.964Z,14.83
2018-11-29T00:17:49.110Z,15.18
2018-11-29T00:20:19.078Z,14.35
2018-11-29T00:22:48.035Z,13.88
2018-11-29T00:25:16.916Z,14.80
2018-11-29T00:27:45.447Z,15.20
2018-11-29T00:30:22.617Z,15.32
2018-11-29T00:32:51.576Z,13.68
2018-11-29T00:35:19.723Z,14.50
2018-11-29T00:37:47.877Z,15.20
2018-11-29T00:40:19.600Z,15.08
2018-11-29T00:42:47.758Z,14.35
2018-11-29T00:45:16.858Z,12.75
2018-11-29T00:47:45.555Z,14.63
2018-11-29T00:50:14.328Z,15.70
2018-11-29T00:52:44.258Z,14.80
2018-11-29T00:55:14.364Z,13.70
2018-11-29T00:57:42.498Z,14.53
2018-11-29T01:00:19.319Z,12.98
2018-11-29T01:02:47.473Z,13.65
2018-11-29T01:05:15.612Z,13.48
2018-11-29T01:07:43.764Z,14.03
2018-11-29T01:10:15.846Z,13.48
2018-11-29T01:12:44.280Z,14.85
2018-11-29T01:15:13.377Z,14.85
2018-11-29T01:17:41.592Z,15.32
2018-11-29T01:20:11.668Z,13.90
2018-11-29T01:22:39.833Z,13.68
2018-11-29T01:25:09.213Z,15.40
2018-11-29T01:27:37.357Z,15.10
2018-11-29T01:30:10.313Z,14.80
2018-11-29T01:32:38.471Z,15.58
2018-11-29T01:35:07.368Z,15.15
2018-11-29T01:37:35.511Z,15.53
2018-11-29T01:40:03.690Z,15.63
2018-11-29T01:42:31.835Z,15.68
2018-11-29T01:44:59.970Z,16.15
2018-11-29T01:47:28.106Z,16.30
2018-11-29T01:49:56.248Z,14.90
2018-11-29T01:52:24.458Z,14.25
2018-11-29T01:54:52.607Z,14.40
2018-11-29T01:57:20.754Z,16.65
2018-11-29T01:59:48.891Z,14.68
2018-11-29T02:02:17.020Z,15.75
2018-11-29T02:04:45.145Z,15.90
2018-11-29T02:07:13.287Z,15.40
2018-11-29T02:09:41.427Z,14.13
2018-11-29T02:12:09.554Z,15.53
2018-11-29T02:14:37.702Z,14.63
2018-11-29T02:17:06.077Z,14.10
2018-11-29T02:19:34.223Z,14.25
2018-11-29T02:22:02.373Z,14.38
2018-11-29T02:24:30.501Z,15.25
2018-11-29T02:26:58.628Z,17.82
2018-11-29T02:29:26.779Z,16.42
2018-11-29T02:31:54.927Z,16.10
2018-11-29T02:34:23.067Z,15.25
2018-11-29T02:36:51.211Z,14.00
2018-11-29T02:39:19.348Z,16.90
2018-11-29T02:41:47.480Z,16.85
2018-11-29T02:44:15.618Z,16.52
2018-11-29T02:46:43.744Z,15.85
2018-11-29T02:49:11.890Z,16.25
2018-11-29T02:51:40.026Z,17.73
2018-11-29T02:54:08.185Z,17.00
2018-11-29T02:56:36.322Z,16.97
2018-11-29T02:59:04.467Z,17.35
2018-11-29T03:01:32.598Z,17.15
2018-11-29T03:04:00.751Z,16.48
2018-11-29T03:06:28.889Z,17.37
2018-11-29T03:08:57.020Z,17.75
2018-11-29T03:11:25.146Z,18.20
2018-11-29T03:13:53.289Z,17.00
2018-11-29T03:16:21.413Z,17.77
2018-11-29T03:18:49.555Z,17.92
2018-11-29T03:21:17.680Z,17.57
2018-11-29T03:23:45.822Z,18.00
2018-11-29T03:26:13.958Z,16.20
2018-11-29T03:28:42.111Z,18.20
2018-11-29T03:31:10.249Z,18.95
2018-11-29T03:33:38.391Z,18.35
2018-11-29T03:36:06.538Z,18.87
2018-11-29T03:38:34.689Z,18.12
2018-11-29T03:41:03.084Z,17.80
2018-11-29T03:43:31.238Z,18.87
2018-11-29T03:45:59.364Z,18.15
2018-11-29T03:48:27.500Z,20.50
2018-11-29T03:50:55.651Z,18.95
2018-11-29T03:53:23.764Z,20.52
2018-11-29T03:55:51.879Z,19.62
2018-11-29T03:58:20.008Z,19.52
2018-11-29T04:00:48.126Z,20.57
2018-11-29T04:03:16.253Z,18.95
2018-11-29T04:05:44.395Z,21.33
2018-11-29T04:08:12.505Z,20.08
2018-11-29T04:10:40.630Z,20.05
2018-11-29T04:13:08.774Z,19.05
2018-11-29T04:15:36.898Z,19.67
2018-11-29T04:18:05.856Z,20.17
2018-11-29T04:20:33.998Z,21.33
2018-11-29T04:23:02.104Z,20.05
2018-11-29T04:25:30.243Z,20.60
2018-11-29T04:27:58.358Z,21.73
2018-11-29T04:30:26.495Z,20.40
2018-11-29T04:32:54.606Z,21.95
2018-11-29T04:35:22.716Z,21.60
2018-11-29T04:37:50.842Z,20.52
2018-11-29T04:40:18.997Z,21.60
2018-11-29T04:42:47.108Z,21.87
2018-11-29T04:45:16.317Z,20.65
2018-11-29T04:47:44.451Z,20.75
2018-11-29T04:50:12.618Z,21.85
2018-11-29T04:52:40.748Z,23.00
2018-11-29T04:55:09.708Z,21.93
2018-11-29T04:57:37.954Z,21.65
2018-11-29T05:00:20.928Z,22.75
2018-11-29T05:02:49.057Z,21.93
2018-11-29T05:05:17.196Z,20.72
2018-11-29T05:07:45.339Z,23.05
2018-11-29T05:10:16.418Z,21.68
2018-11-29T05:12:44.750Z,22.45
2018-11-29T05:15:12.876Z,22.20
2018-11-29T05:17:41.013Z,21.93
2018-11-29T05:20:09.327Z,20.30
2018-11-29T05:22:37.469Z,23.60
2018-11-29T05:25:06.541Z,22.58
2018-11-29T05:27:40.480Z,21.00
2018-11-29T05:30:10.581Z,20.30
2018-11-29T05:32:38.715Z,22.25
2018-11-29T05:35:08.586Z,23.18
2018-11-29T05:37:36.717Z,22.60
2018-11-29T05:40:06.233Z,21.55
2018-11-29T05:42:34.405Z,20.60
2018-11-29T05:45:02.852Z,25.05
2018-11-29T05:47:30.981Z,22.10
2018-11-29T05:49:59.122Z,21.50
2018-11-29T05:52:27.243Z,21.93
2018-11-29T05:54:55.438Z,20.80
2018-11-29T05:57:23.524Z,20.57
2018-11-29T05:59:51.657Z,20.97
2018-11-29T06:02:19.810Z,20.35
2018-11-29T06:04:47.944Z,22.13
2018-11-29T06:07:16.072Z,23.98
2018-11-29T06:09:44.221Z,21.48
2018-11-29T06:12:12.352Z,20.45
2018-11-29T06:14:40.489Z,20.32
2018-11-29T06:17:08.626Z,21.97
2018-11-29T06:19:36.740Z,20.17
2018-11-29T06:22:04.873Z,21.25
2018-11-29T06:24:32.993Z,20.25
2018-11-29T06:27:01.121Z,21.57
2018-11-29T06:29:29.246Z,23.27
2018-11-29T06:31:57.373Z,22.22
2018-11-29T06:34:25.496Z,21.77
2018-11-29T06:36:53.634Z,21.12
2018-11-29T06:39:21.765Z,20.97
2018-11-29T06:41:49.903Z,19.98
2018-11-29T06:44:18.026Z,22.77
2018-11-29T06:46:46.145Z,18.10
2018-11-29T06:49:14.260Z,19.90
2018-11-29T06:51:42.390Z,23.07
2018-11-29T06:54:10.540Z,20.88
2018-11-29T06:56:38.697Z,22.20
2018-11-29T06:59:06.831Z,19.62
2018-11-29T07:01:34.974Z,20.50
2018-11-29T07:04:03.360Z,18.82
2018-11-29T07:06:31.488Z,20.35
2018-11-29T07:08:59.626Z,20.05
2018-11-29T07:11:27.770Z,18.52
2018-11-29T07:13:55.910Z,21.85
2018-11-29T07:16:24.070Z,18.50
2018-11-29T07:18:52.192Z,18.85
2018-11-29T07:21:57.253Z,20.27
2018-11-29T07:24:25.556Z,18.48
2018-11-29T07:26:53.688Z,18.37
2018-11-29T07:29:21.821Z,19.05
2018-11-29T07:31:49.979Z,20.72
2018-11-29T07:34:18.127Z,18.48
2018-11-29T07:36:46.241Z,17.15
2018-11-29T07:39:14.360Z,18.87
2018-11-29T07:41:42.511Z,17.92
2018-11-29T07:44:10.784Z,18.25
2018-11-29T07:46:38.930Z,20.40
2018-11-29T07:49:07.062Z,20.25
2018-11-29T07:51:35.211Z,19.48
2018-11-29T07:54:03.361Z,19.87
2018-11-29T07:56:31.495Z,19.10
2018-11-29T07:58:59.644Z,18.42
2018-11-29T08:01:27.780Z,20.92
2018-11-29T08:03:55.917Z,18.02
2018-11-29T08:06:24.052Z,20.15
2018-11-29T08:08:52.191Z,19.27
2018-11-29T08:11:20.329Z,20.32
2018-11-29T08:13:48.465Z,21.37
2018-11-29T08:16:16.596Z,18.02
2018-11-29T08:18:44.720Z,19.05
2018-11-29T08:21:12.863Z,18.82
2018-11-29T08:23:41.029Z,18.50
2018-11-29T08:26:09.201Z,18.77
2018-11-29T08:28:37.337Z,17.07
2018-11-29T08:31:05.662Z,19.90
2018-11-29T08:33:33.806Z,18.40
2018-11-29T08:36:01.954Z,16.48
2018-11-29T08:38:30.080Z,17.20
2018-11-29T08:40:58.225Z,17.07
2018-11-29T08:43:26.897Z,15.90
2018-11-29T08:45:54.568Z,18.85
2018-11-29T08:48:22.706Z,17.30
2018-11-29T08:50:50.837Z,20.55
2018-11-29T08:53:18.981Z,17.20
2018-11-29T08:55:47.129Z,18.05
2018-11-29T08:58:15.299Z,17.95
2018-11-29T09:00:43.465Z,18.65
2018-11-29T09:03:11.624Z,18.35
2018-11-29T09:05:39.758Z,17.77
2018-11-29T09:08:07.894Z,16.05
2018-11-29T09:10:36.052Z,17.42
2018-11-29T09:13:04.376Z,17.82
2018-11-29T09:15:32.528Z,18.23
2018-11-29T09:18:07.339Z,17.40
2018-11-29T09:20:35.487Z,17.27
2018-11-29T09:23:03.632Z,19.92
2018-11-29T09:25:31.775Z,16.65
2018-11-29T09:28:00.015Z,16.85
2018-11-29T09:30:28.064Z,17.48
2018-11-29T09:32:56.206Z,18.10
2018-11-29T09:35:24.357Z,18.60
2018-11-29T09:37:52.510Z,17.82
2018-11-29T09:40:20.657Z,16.73
2018-11-29T09:42:48.792Z,16.65
2018-11-29T09:45:18.758Z,17.48
2018-11-29T09:47:49.893Z,17.00
2018-11-29T09:50:18.344Z,17.37
2018-11-29T09:52:46.516Z,15.40
2018-11-29T09:55:15.501Z,17.55
2018-11-29T09:57:44.096Z,18.73
2018-11-29T10:00:14.722Z,15.88
2018-11-29T10:02:44.320Z,16.55
2018-11-29T10:05:13.113Z,18.45
2018-11-29T10:07:41.259Z,14.85
2018-11-29T10:10:10.697Z,18.00
2018-11-29T10:12:39.496Z,18.12
2018-11-29T10:15:10.202Z,17.23
2018-11-29T10:17:38.330Z,16.48
2018-11-29T10:20:09.533Z,17.75
2018-11-29T10:22:37.931Z,18.95
2018-11-29T10:25:07.950Z,18.42
2018-11-29T10:27:36.086Z,18.60
2018-11-29T10:30:09.713Z,19.48
2018-11-29T10:32:37.836Z,18.57
2018-11-29T10:35:06.674Z,18.75
2018-11-29T10:37:34.821Z,19.02
2018-11-29T10:40:03.941Z,19.62
2018-11-29T10:42:32.069Z,17.17
2018-11-29T10:45:00.206Z,18.50
2018-11-29T10:47:28.344Z,18.82
2018-11-29T10:49:56.487Z,19.80
2018-11-29T10:52:24.620Z,17.73
2018-11-29T10:54:52.754Z,18.52
2018-11-29T10:57:20.922Z,18.27
2018-11-29T10:59:49.049Z,19.05
2018-11-29T11:02:22.478Z,16.55
2018-11-29T11:04:50.597Z,18.10
2018-11-29T11:07:18.785Z,18.70
2018-11-29T11:09:46.932Z,17.62
2018-11-29T11:12:18.606Z,16.77
2018-11-29T11:14:43.220Z,15.43
2018-11-29T11:17:11.375Z,16.32
2018-11-29T11:19:39.515Z,14.90
2018-11-29T11:22:07.648Z,15.40
2018-11-29T11:24:35.807Z,16.30
2018-11-29T11:27:03.961Z,15.58
2018-11-29T11:29:32.094Z,14.95
2018-11-29T11:32:00.254Z,14.45
2018-11-29T11:34:28.382Z,14.68
2018-11-29T11:36:56.510Z,15.13
2018-11-29T11:39:24.814Z,16.00
2018-11-29T11:41:52.974Z,17.12
2018-11-29T11:44:21.124Z,16.30
2018-11-29T11:46:49.253Z,18.27
2018-11-29T11:49:17.376Z,18.00
2018-11-29T11:51:45.533Z,17.82
2018-11-29T11:54:13.685Z,18.30
2018-11-29T11:56:41.869Z,17.45
2018-11-29T11:59:10.026Z,17.92
2018-11-29T12:01:38.151Z,19.37
2018-11-29T12:04:06.305Z,18.80
2018-11-29T12:06:34.437Z,19.20
2018-11-29T12:09:02.588Z,9.93
2018-11-29T12:11:31.246Z,17.85
2018-11-29T12:13:58.934Z,20.17
2018-11-29T12:16:27.074Z,19.17
2018-11-29T12:18:55.252Z,20.23
2018-11-29T12:21:23.419Z,21.27
2018-11-29T12:23:51.579Z,19.92
2018-11-29T12:26:19.727Z,20.85
2018-11-29T12:28:47.878Z,17.30
2018-11-29T12:31:16.038Z,18.30
2018-11-29T12:33:44.249Z,19.85
2018-11-29T12:36:12.386Z,19.60
2018-11-29T12:38:40.531Z,16.17
2018-11-29T12:41:08.766Z,17.57
2018-11-29T12:43:36.916Z,17.98
2018-11-29T12:46:05.237Z,19.20
2018-11-29T12:48:33.516Z,18.25
2018-11-29T12:51:01.633Z,17.10
2018-11-29T12:53:29.776Z,18.32
2018-11-29T12:55:57.914Z,14.98
2018-11-29T12:58:26.105Z,19.05
2018-11-29T13:00:54.264Z,17.37
2018-11-29T13:03:22.405Z,16.97
2018-11-29T13:05:50.546Z,17.95
2018-11-29T13:08:18.786Z,16.90
2018-11-29T13:10:46.914Z,17.35
2018-11-29T13:13:15.070Z,17.02
2018-11-29T13:15:43.258Z,15.83
2018-11-29T13:18:11.393Z,17.57
2018-11-29T13:20:39.528Z,18.50
2018-11-29T13:23:07.692Z,17.87
2018-11-29T13:25:36.070Z,16.45
2018-11-29T13:28:04.210Z,16.05
2018-11-29T13:30:32.342Z,17.00
2018-11-29T13:33:00.487Z,18.90
2018-11-29T13:35:33.252Z,18.90
2018-11-29T13:38:09.849Z,19.92
2018-11-29T13:40:38.034Z,19.52
2018-11-29T13:43:06.181Z,18.75
2018-11-29T13:45:34.642Z,20.62
2018-11-29T13:48:02.773Z,16.50
2018-11-29T13:50:31.066Z,16.93
2018-11-29T13:52:59.059Z,18.90
2018-11-29T13:55:27.214Z,19.45
2018-11-29T13:57:55.304Z,16.32
2018-11-29T14:00:23.940Z,17.73
2018-11-29T14:03:01.324Z,18.55
2018-11-29T14:05:29.440Z,15.72
2018-11-29T14:07:58.235Z,16.57
2018-11-29T14:10:26.374Z,17.52
2018-11-29T14:12:55.209Z,15.35
2018-11-29T14:15:24.518Z,12.15
2018-11-29T14:17:52.634Z,15.20
2018-11-29T14:20:20.769Z,15.72
2018-11-29T14:22:48.893Z,14.15
2018-11-29T14:25:17.415Z,14.00
2018-11-29T14:27:47.524Z,13.30
2018-11-29T14:30:25.426Z,11.90
2018-11-29T14:32:54.566Z,11.50
2018-11-29T14:35:22.681Z,12.43
2018-11-29T14:37:50.809Z,13.03
2018-11-29T14:40:20.947Z,12.37
2018-11-29T14:42:49.072Z,12.80
2018-11-29T14:45:19.293Z,13.25
2018-11-29T14:47:47.445Z,12.30
2018-11-29T14:50:22.912Z,10.68
2018-11-29T14:52:51.074Z,12.43
2018-11-29T14:55:19.207Z,11.68
2018-11-29T14:57:47.329Z,12.03
2018-11-29T15:00:15.473Z,12.93
2018-11-29T15:02:43.872Z,12.85
2018-11-29T15:05:16.505Z,12.55
2018-11-29T15:07:44.653Z,14.40
2018-11-29T15:10:12.791Z,13.85
2018-11-29T15:12:40.926Z,11.55
2018-11-29T15:15:10.320Z,10.95
2018-11-29T15:17:39.173Z,10.32
2018-11-29T15:20:17.746Z,12.10
2018-11-29T15:22:45.878Z,11.18
2018-11-29T15:25:14.034Z,12.70
2018-11-29T15:27:42.134Z,13.10
2018-11-29T15:30:12.750Z,12.18
2018-11-29T15:32:40.874Z,11.28
2018-11-29T15:35:09.189Z,11.75
2018-11-29T15:37:37.324Z,11.97
2018-11-29T15:40:09.615Z,11.83
2018-11-29T15:42:37.712Z,13.00
2018-11-29T15:45:08.484Z,11.40
2018-11-29T15:47:36.621Z,13.70
2018-11-29T15:50:06.889Z,12.33
2018-11-29T15:52:35.004Z,11.50
2018-11-29T15:55:03.144Z,12.58
2018-11-29T15:57:34.936Z,12.05
2018-11-29T15:59:59.472Z,12.58
2018-11-29T16:02:27.609Z,12.15
2018-11-29T16:04:55.794Z,10.82
2018-11-29T16:07:23.908Z,16.80
2018-11-29T16:09:52.061Z,21.10
2018-11-29T16:12:20.196Z,10.95
2018-11-29T16:14:48.438Z,10.78
2018-11-29T16:17:16.576Z,10.00
2018-11-29T16:19:44.751Z,11.63
2018-11-29T16:22:12.872Z,11.63
2018-11-29T16:24:41.003Z,10.55
2018-11-29T16:27:09.121Z,10.35
2018-11-29T16:29:37.240Z,10.23
2018-11-29T16:32:06.732Z,10.48
2018-11-29T16:34:34.867Z,10.70
2018-11-29T16:37:03.014Z,10.45
2018-11-29T16:39:31.743Z,10.55
2018-11-29T16:41:59.348Z,11.25
2018-11-29T16:44:27.478Z,10.10
2018-11-29T16:46:55.643Z,9.98
2018-11-29T16:49:23.794Z,9.83
2018-11-29T16:51:51.930Z,10.70
2018-11-29T16:54:20.082Z,9.85
2018-11-29T16:56:48.270Z,10.95
2018-11-29T16:59:16.405Z,10.20
2018-11-29T17:01:44.630Z,11.40
2018-11-29T17:04:12.764Z,10.95
2018-11-29T17:06:41.082Z,11.48
2018-11-29T17:09:09.800Z,10.80
2018-11-29T17:11:37.941Z,10.65
2018-11-29T17:14:06.397Z,10.93
2018-11-29T17:16:34.540Z,9.80
2018-11-29T17:19:02.677Z,11.30
2018-11-29T17:21:30.876Z,11.55
2018-11-29T17:23:59.113Z,10.45
2018-11-29T17:26:27.250Z,10.03
2018-11-29T17:28:55.391Z,10.18
2018-11-29T17:31:23.569Z,10.72
2018-11-29T17:33:51.749Z,11.70
2018-11-29T17:36:19.894Z,12.05
2018-11-29T17:38:48.242Z,12.20
2018-11-29T17:41:16.497Z,12.47
2018-11-29T17:43:44.632Z,11.22
2018-11-29T17:46:12.831Z,11.83
2018-11-29T17:48:41.001Z,12.53
2018-11-29T17:51:09.134Z,11.68
2018-11-29T17:53:37.339Z,10.70
2018-11-29T17:56:06.370Z,12.20
2018-11-29T17:58:34.743Z,12.00
2018-11-29T18:01:02.836Z,12.68
2018-11-29T18:03:31.008Z,12.68
2018-11-29T18:05:59.136Z,12.63
2018-11-29T18:08:27.284Z,12.10
2018-11-29T18:10:56.988Z,13.13
2018-11-29T18:13:31.206Z,13.00
2018-11-29T18:15:59.405Z,11.73
2018-11-29T18:18:27.558Z,12.40
2018-11-29T18:20:55.690Z,11.10
2018-11-29T18:23:23.824Z,12.03
2018-11-29T18:25:51.948Z,13.45
2018-11-29T18:28:20.132Z,12.88
2018-11-29T18:30:48.292Z,12.35
2018-11-29T18:33:16.416Z,12.23
2018-11-29T18:35:44.617Z,13.50
2018-11-29T18:38:12.770Z,13.40
2018-11-29T18:40:40.933Z,12.58
2018-11-29T18:43:10.050Z,12.37
2018-11-29T18:45:38.601Z,12.35
2018-11-29T18:48:07.380Z,12.82
2018-11-29T18:50:35.542Z,12.35
2018-11-29T18:53:03.695Z,11.90
2018-11-29T18:55:31.866Z,12.07
2018-11-29T18:58:00.018Z,12.55
2018-11-29T19:00:30.469Z,12.90
2018-11-29T19:02:58.606Z,11.22
2018-11-29T19:05:26.762Z,12.80
2018-11-29T19:07:54.893Z,13.65
2018-11-29T19:10:23.278Z,12.10
2018-11-29T19:12:56.069Z,12.90
2018-11-29T19:15:24.193Z,13.28
2018-11-29T19:17:52.366Z,11.57
2018-11-29T19:20:20.506Z,11.40
2018-11-29T19:22:48.627Z,11.38
2018-11-29T19:25:18.516Z,12.82
2018-11-29T19:27:46.646Z,11.65
2018-11-29T19:30:24.065Z,11.33
2018-11-29T19:32:54.190Z,11.60
2018-11-29T19:35:22.376Z,10.30
2018-11-29T19:37:50.447Z,10.80
2018-11-29T19:40:18.854Z,10.15
2018-11-29T19:42:46.706Z,11.12
2018-11-29T19:45:15.672Z,12.20
2018-11-29T19:47:43.930Z,11.63
2018-11-29T19:50:16.942Z,10.58
2018-11-29T19:52:47.256Z,11.50
2018-11-29T19:55:16.970Z,10.35
2018-11-29T19:57:45.118Z,10.45
2018-11-29T20:00:13.685Z,11.90
2018-11-29T20:02:42.850Z,11.15
2018-11-29T20:05:11.712Z,11.57
2018-11-29T20:07:40.921Z,10.95
2018-11-29T20:10:11.337Z,11.30
2018-11-29T20:12:39.575Z,11.12
2018-11-29T20:15:11.242Z,11.80
2018-11-29T20:17:39.562Z,11.48
2018-11-29T20:20:09.165Z,11.38
2018-11-29T20:22:37.544Z,11.18
2018-11-29T20:25:08.074Z,9.83
2018-11-29T20:27:36.348Z,9.65
2018-11-29T20:30:06.051Z,11.60
2018-11-29T20:32:34.202Z,11.93
2018-11-29T20:35:02.357Z,10.55
2018-11-29T20:37:30.519Z,10.53
2018-11-29T20:39:58.662Z,10.40
2018-11-29T20:42:26.793Z,9.28
2018-11-29T20:44:54.934Z,11.28
2018-11-29T20:47:23.061Z,10.23
2018-11-29T20:49:51.197Z,9.88
2018-11-29T20:52:19.336Z,9.80
2018-11-29T20:54:47.503Z,10.82
2018-11-29T20:57:15.673Z,10.23
2018-11-29T20:59:43.829Z,9.80
2018-11-29T21:02:11.974Z,10.00
2018-11-29T21:04:40.133Z,9.23
2018-11-29T21:07:08.268Z,9.38
2018-11-29T21:09:36.418Z,9.65
2018-11-29T21:12:04.607Z,9.95
2018-11-29T21:14:32.740Z,9.70
2018-11-29T21:17:00.876Z,10.10
2018-11-29T21:19:29.012Z,9.45
2018-11-29T21:21:57.338Z,9.78
2018-11-29T21:24:25.571Z,10.65
2018-11-29T21:26:53.839Z,9.48
2018-11-29T21:29:22.183Z,9.30
2018-11-29T21:31:50.505Z,8.78
2018-11-29T21:34:18.848Z,8.30
2018-11-29T21:36:46.986Z,10.48
2018-11-29T21:39:15.124Z,8.20
2018-11-29T21:41:43.266Z,8.90
2018-11-29T21:44:11.411Z,8.58
2018-11-29T21:46:39.533Z,9.23
2018-11-29T21:49:07.679Z,10.08
2018-11-29T21:51:35.816Z,9.60
2018-11-29T21:54:03.956Z,9.40
2018-11-29T21:56:32.988Z,9.30
2018-11-29T21:59:01.117Z,7.40
2018-11-29T22:01:29.281Z,8.70
2018-11-29T22:03:57.457Z,9.45
2018-11-29T22:06:25.554Z,8.78
2018-11-29T22:08:53.762Z,9.10
2018-11-29T22:11:21.894Z,9.78
2018-11-29T22:13:50.054Z,8.80
2018-11-29T22:16:18.194Z,8.90
2018-11-29T22:18:46.343Z,9.15
2018-11-29T22:21:14.461Z,8.73
2018-11-29T22:23:42.713Z,8.85
2018-11-29T22:26:13.230Z,8.45
2018-11-29T22:28:41.977Z,8.55
2018-11-29T22:31:10.241Z,8.98
2018-11-29T22:33:38.368Z,8.38
2018-11-29T22:36:06.947Z,8.00
2018-11-29T22:38:35.184Z,8.63
2018-11-29T22:41:03.464Z,8.95
2018-11-29T22:43:31.795Z,8.80
2018-11-29T22:46:00.025Z,10.05
2018-11-29T22:48:28.283Z,9.55
2018-11-29T22:50:56.413Z,8.13
2018-11-29T22:53:24.553Z,8.60
2018-11-29T22:55:52.686Z,7.90
2018-11-29T22:58:20.837Z,9.75
2018-11-29T23:00:52.327Z,8.78
2018-11-29T23:03:20.657Z,9.20
2018-11-29T23:05:48.810Z,7.90
2018-11-29T23:08:16.962Z,8.15
2018-11-29T23:10:45.116Z,9.03
2018-11-29T23:13:13.254Z,7.95
2018-11-29T23:15:41.406Z,9.35
2018-11-29T23:18:09.554Z,7.40
2018-11-29T23:20:37.802Z,7.28
2018-11-29T23:23:06.001Z,7.65
2018-11-29T23:25:34.632Z,7.30
2018-11-29T23:28:03.552Z,8.65
2018-11-29T23:30:31.721Z,7.30
2018-11-29T23:32:59.862Z,8.00
2018-11-29T23:35:28.003Z,8.18
2018-11-29T23:37:56.151Z,8.10
2018-11-29T23:40:24.291Z,7.12
2018-11-29T23:42:52.438Z,8.08
2018-11-29T23:45:20.578Z,8.98
2018-11-29T23:47:48.715Z,8.58
2018-11-29T23:50:18.438Z,7.80
2018-11-29T23:52:46.908Z,8.80
2018-11-29T23:55:19.100Z,8.60
2018-11-29T23:57:47.275Z,7.50
